sensor_id;sensor_type;location;lat;lon;timestamp;P1;durP1;ratioP1;P2;durP2;ratioP2
52035;SDS011;38046;49.448;32.074;2023-02-28T00:00:13;4.38;;;3.58;;
52035;SDS011;38046;49.448;32.074;2023-02-28T00:02:42;4.30;;;3.33;;
52035;SDS011;38046;49.448;32.074;2023-02-28T00:05:09;4.32;;;3.58;;
52035;SDS011;38046;49.448;32.074;2023-02-28T00:07:36;4.03;;;3.63;;
52035;SDS011;38046;49.448;32.074;2023-02-28T00:10:03;4.47;;;3.78;;
52035;SDS011;38046;49.448;32.074;2023-02-28T00:12:31;3.95;;;3.45;;
52035;SDS011;38046;49.448;32.074;2023-02-28T00:14:57;5.05;;;3.88;;
52035;SDS011;38046;49.448;32.074;2023-02-28T00:17:23;3.90;;;3.50;;
52035;SDS011;38046;49.448;32.074;2023-02-28T00:19:48;3.97;;;3.47;;
52035;SDS011;38046;49.448;32.074;2023-02-28T00:22:18;3.60;;;3.30;;
52035;SDS011;38046;49.448;32.074;2023-02-28T00:24:45;3.88;;;3.25;;
52035;SDS011;38046;49.448;32.074;2023-02-28T00:27:11;3.92;;;3.30;;
52035;SDS011;38046;49.448;32.074;2023-02-28T00:29:37;4.13;;;3.63;;
52035;SDS011;38046;49.448;32.074;2023-02-28T00:32:04;4.72;;;3.45;;
52035;SDS011;38046;49.448;32.074;2023-02-28T00:34:30;4.05;;;3.47;;
52035;SDS011;38046;49.448;32.074;2023-02-28T00:36:55;3.85;;;3.45;;
52035;SDS011;38046;49.448;32.074;2023-02-28T00:39:21;4.47;;;3.20;;
52035;SDS011;38046;49.448;32.074;2023-02-28T00:41:47;3.80;;;3.40;;
52035;SDS011;38046;49.448;32.074;2023-02-28T00:44:13;3.83;;;3.42;;
52035;SDS011;38046;49.448;32.074;2023-02-28T00:46:39;3.97;;;3.28;;
52035;SDS011;38046;49.448;32.074;2023-02-28T00:49:04;3.83;;;3.33;;
52035;SDS011;38046;49.448;32.074;2023-02-28T00:51:30;4.75;;;3.38;;
52035;SDS011;38046;49.448;32.074;2023-02-28T00:53:55;4.03;;;3.15;;
52035;SDS011;38046;49.448;32.074;2023-02-28T00:56:21;4.15;;;3.40;;
52035;SDS011;38046;49.448;32.074;2023-02-28T00:58:47;3.67;;;3.10;;
52035;SDS011;38046;49.448;32.074;2023-02-28T01:01:12;3.70;;;3.20;;
52035;SDS011;38046;49.448;32.074;2023-02-28T01:03:38;3.97;;;3.50;;
52035;SDS011;38046;49.448;32.074;2023-02-28T01:06:04;4.50;;;3.20;;
52035;SDS011;38046;49.448;32.074;2023-02-28T01:08:29;4.20;;;3.50;;
52035;SDS011;38046;49.448;32.074;2023-02-28T01:10:55;4.97;;;3.78;;
52035;SDS011;38046;49.448;32.074;2023-02-28T01:13:21;3.60;;;3.30;;
52035;SDS011;38046;49.448;32.074;2023-02-28T01:15:51;5.20;;;3.70;;
52035;SDS011;38046;49.448;32.074;2023-02-28T01:18:19;3.58;;;3.28;;
52035;SDS011;38046;49.448;32.074;2023-02-28T01:20:46;4.43;;;3.50;;
52035;SDS011;38046;49.448;32.074;2023-02-28T01:23:12;3.50;;;3.20;;
52035;SDS011;38046;49.448;32.074;2023-02-28T01:25:38;3.83;;;3.35;;
52035;SDS011;38046;49.448;32.074;2023-02-28T01:28:04;4.07;;;3.22;;
52035;SDS011;38046;49.448;32.074;2023-02-28T01:30:30;3.90;;;3.35;;
52035;SDS011;38046;49.448;32.074;2023-02-28T01:32:57;3.55;;;3.25;;
52035;SDS011;38046;49.448;32.074;2023-02-28T01:35:23;5.15;;;3.42;;
52035;SDS011;38046;49.448;32.074;2023-02-28T01:37:48;3.20;;;2.90;;
52035;SDS011;38046;49.448;32.074;2023-02-28T01:40:14;3.92;;;3.35;;
52035;SDS011;38046;49.448;32.074;2023-02-28T01:42:40;3.67;;;3.35;;
52035;SDS011;38046;49.448;32.074;2023-02-28T01:47:52;3.97;;;3.35;;
52035;SDS011;38046;49.448;32.074;2023-02-28T01:50:21;4.45;;;3.50;;
52035;SDS011;38046;49.448;32.074;2023-02-28T01:52:51;4.50;;;3.38;;
52035;SDS011;38046;49.448;32.074;2023-02-28T01:55:20;4.30;;;3.58;;
52035;SDS011;38046;49.448;32.074;2023-02-28T01:57:51;4.68;;;3.45;;
52035;SDS011;38046;49.448;32.074;2023-02-28T02:00:20;3.50;;;3.10;;
52035;SDS011;38046;49.448;32.074;2023-02-28T02:02:49;4.07;;;3.25;;
52035;SDS011;38046;49.448;32.074;2023-02-28T02:05:20;4.95;;;3.67;;
52035;SDS011;38046;49.448;32.074;2023-02-28T02:07:52;3.72;;;3.33;;
52035;SDS011;38046;49.448;32.074;2023-02-28T02:13:09;4.10;;;3.35;;
52035;SDS011;38046;49.448;32.074;2023-02-28T02:18:48;4.50;;;3.63;;
52035;SDS011;38046;49.448;32.074;2023-02-28T02:35:12;4.40;;;3.70;;
52035;SDS011;38046;49.448;32.074;2023-02-28T02:45:25;5.65;;;3.88;;
52035;SDS011;38046;49.448;32.074;2023-02-28T02:48:05;5.63;;;4.13;;
52035;SDS011;38046;49.448;32.074;2023-02-28T02:50:38;5.63;;;4.75;;
52035;SDS011;38046;49.448;32.074;2023-02-28T02:53:08;6.43;;;4.53;;
52035;SDS011;38046;49.448;32.074;2023-02-28T02:55:39;4.75;;;4.00;;
52035;SDS011;38046;49.448;32.074;2023-02-28T02:58:08;5.78;;;3.90;;
52035;SDS011;38046;49.448;32.074;2023-02-28T03:00:42;5.53;;;3.92;;
52035;SDS011;38046;49.448;32.074;2023-02-28T03:03:12;4.97;;;4.00;;
52035;SDS011;38046;49.448;32.074;2023-02-28T03:05:42;5.60;;;4.38;;
52035;SDS011;38046;49.448;32.074;2023-02-28T03:08:12;5.22;;;4.03;;
52035;SDS011;38046;49.448;32.074;2023-02-28T03:10:45;5.43;;;4.05;;
52035;SDS011;38046;49.448;32.074;2023-02-28T03:13:24;6.20;;;4.43;;
52035;SDS011;38046;49.448;32.074;2023-02-28T03:27:26;4.95;;;3.83;;
52035;SDS011;38046;49.448;32.074;2023-02-28T03:30:03;4.75;;;3.72;;
52035;SDS011;38046;49.448;32.074;2023-02-28T03:32:36;5.93;;;3.95;;
52035;SDS011;38046;49.448;32.074;2023-02-28T03:35:12;4.88;;;3.60;;
52035;SDS011;38046;49.448;32.074;2023-02-28T03:37:46;6.15;;;4.18;;
52035;SDS011;38046;49.448;32.074;2023-02-28T03:40:17;4.18;;;3.50;;
52035;SDS011;38046;49.448;32.074;2023-02-28T03:42:47;5.28;;;3.97;;
52035;SDS011;38046;49.448;32.074;2023-02-28T03:45:21;4.25;;;3.53;;
52035;SDS011;38046;49.448;32.074;2023-02-28T03:48:06;4.57;;;3.70;;
52035;SDS011;38046;49.448;32.074;2023-02-28T03:50:37;4.38;;;3.70;;
52035;SDS011;38046;49.448;32.074;2023-02-28T03:53:14;4.30;;;3.70;;
52035;SDS011;38046;49.448;32.074;2023-02-28T03:55:45;4.85;;;3.90;;
52035;SDS011;38046;49.448;32.074;2023-02-28T03:58:21;4.40;;;3.72;;
52035;SDS011;38046;49.448;32.074;2023-02-28T04:01:20;4.93;;;3.97;;
52035;SDS011;38046;49.448;32.074;2023-02-28T04:03:52;4.80;;;3.60;;
52035;SDS011;38046;49.448;32.074;2023-02-28T04:06:19;4.72;;;3.60;;
52035;SDS011;38046;49.448;32.074;2023-02-28T04:08:47;4.00;;;3.60;;
52035;SDS011;38046;49.448;32.074;2023-02-28T04:13:42;4.60;;;3.67;;
52035;SDS011;38046;49.448;32.074;2023-02-28T04:16:08;4.70;;;3.90;;
52035;SDS011;38046;49.448;32.074;2023-02-28T04:18:37;4.82;;;3.80;;
52035;SDS011;38046;49.448;32.074;2023-02-28T04:21:03;5.30;;;4.00;;
52035;SDS011;38046;49.448;32.074;2023-02-28T04:23:30;5.22;;;4.03;;
52035;SDS011;38046;49.448;32.074;2023-02-28T04:25:55;4.97;;;3.92;;
52035;SDS011;38046;49.448;32.074;2023-02-28T04:28:21;5.50;;;4.43;;
52035;SDS011;38046;49.448;32.074;2023-02-28T04:30:47;4.85;;;3.97;;
52035;SDS011;38046;49.448;32.074;2023-02-28T04:33:12;5.38;;;4.13;;
52035;SDS011;38046;49.448;32.074;2023-02-28T04:35:38;3.95;;;3.38;;
52035;SDS011;38046;49.448;32.074;2023-02-28T04:38:04;5.03;;;4.38;;
52035;SDS011;38046;49.448;32.074;2023-02-28T04:40:29;4.85;;;3.78;;
52035;SDS011;38046;49.448;32.074;2023-02-28T04:42:55;4.35;;;3.78;;
52035;SDS011;38046;49.448;32.074;2023-02-28T04:45:21;5.50;;;4.00;;
52035;SDS011;38046;49.448;32.074;2023-02-28T04:47:46;4.75;;;3.80;;
52035;SDS011;38046;49.448;32.074;2023-02-28T04:50:12;6.15;;;4.13;;
52035;SDS011;38046;49.448;32.074;2023-02-28T04:52:37;4.97;;;3.97;;
52035;SDS011;38046;49.448;32.074;2023-02-28T04:55:03;5.32;;;4.07;;
52035;SDS011;38046;49.448;32.074;2023-02-28T04:57:30;5.03;;;4.10;;
52035;SDS011;38046;49.448;32.074;2023-02-28T04:59:56;4.97;;;3.97;;
52035;SDS011;38046;49.448;32.074;2023-02-28T05:02:21;5.68;;;4.40;;
52035;SDS011;38046;49.448;32.074;2023-02-28T05:04:48;5.22;;;4.30;;
52035;SDS011;38046;49.448;32.074;2023-02-28T05:07:14;7.32;;;4.15;;
52035;SDS011;38046;49.448;32.074;2023-02-28T05:09:39;4.95;;;3.78;;
52035;SDS011;38046;49.448;32.074;2023-02-28T05:12:05;5.38;;;3.83;;
52035;SDS011;38046;49.448;32.074;2023-02-28T05:14:31;4.22;;;3.80;;
52035;SDS011;38046;49.448;32.074;2023-02-28T05:16:56;5.88;;;4.20;;
52035;SDS011;38046;49.448;32.074;2023-02-28T05:19:22;4.90;;;4.05;;
52035;SDS011;38046;49.448;32.074;2023-02-28T05:21:49;5.40;;;4.25;;
52035;SDS011;38046;49.448;32.074;2023-02-28T05:24:17;4.15;;;3.70;;
52035;SDS011;38046;49.448;32.074;2023-02-28T05:26:49;5.10;;;4.18;;
52035;SDS011;38046;49.448;32.074;2023-02-28T05:29:16;6.15;;;4.50;;
52035;SDS011;38046;49.448;32.074;2023-02-28T05:31:42;5.50;;;4.20;;
52035;SDS011;38046;49.448;32.074;2023-02-28T05:34:08;4.13;;;3.70;;
52035;SDS011;38046;49.448;32.074;2023-02-28T05:36:36;4.65;;;3.78;;
52035;SDS011;38046;49.448;32.074;2023-02-28T05:39:02;4.47;;;4.07;;
52035;SDS011;38046;49.448;32.074;2023-02-28T05:41:29;5.38;;;4.13;;
52035;SDS011;38046;49.448;32.074;2023-02-28T05:43:55;5.80;;;4.60;;
52035;SDS011;38046;49.448;32.074;2023-02-28T05:46:22;4.90;;;4.10;;
52035;SDS011;38046;49.448;32.074;2023-02-28T05:48:48;5.35;;;4.10;;
52035;SDS011;38046;49.448;32.074;2023-02-28T05:51:14;6.00;;;4.25;;
52035;SDS011;38046;49.448;32.074;2023-02-28T05:53:39;5.18;;;4.20;;
52035;SDS011;38046;49.448;32.074;2023-02-28T05:56:05;4.65;;;3.95;;
52035;SDS011;38046;49.448;32.074;2023-02-28T05:58:31;5.90;;;4.55;;
52035;SDS011;38046;49.448;32.074;2023-02-28T06:01:00;5.43;;;4.32;;
52035;SDS011;38046;49.448;32.074;2023-02-28T06:03:44;4.57;;;3.72;;
52035;SDS011;38046;49.448;32.074;2023-02-28T06:06:09;6.75;;;3.92;;
52035;SDS011;38046;49.448;32.074;2023-02-28T06:08:35;4.72;;;3.60;;
52035;SDS011;38046;49.448;32.074;2023-02-28T06:11:04;5.00;;;4.03;;
52035;SDS011;38046;49.448;32.074;2023-02-28T06:13:29;4.43;;;3.72;;
52035;SDS011;38046;49.448;32.074;2023-02-28T06:15:55;4.75;;;3.95;;
52035;SDS011;38046;49.448;32.074;2023-02-28T06:18:21;5.45;;;4.10;;
52035;SDS011;38046;49.448;32.074;2023-02-28T06:20:53;4.93;;;4.10;;
52035;SDS011;38046;49.448;32.074;2023-02-28T06:23:20;4.95;;;3.75;;
52035;SDS011;38046;49.448;32.074;2023-02-28T06:25:46;4.95;;;4.20;;
52035;SDS011;38046;49.448;32.074;2023-02-28T06:28:12;5.00;;;4.03;;
52035;SDS011;38046;49.448;32.074;2023-02-28T06:30:38;4.35;;;3.67;;
52035;SDS011;38046;49.448;32.074;2023-02-28T06:33:04;4.90;;;4.07;;
52035;SDS011;38046;49.448;32.074;2023-02-28T06:35:30;5.03;;;3.55;;
52035;SDS011;38046;49.448;32.074;2023-02-28T06:37:56;4.38;;;3.90;;
52035;SDS011;38046;49.448;32.074;2023-02-28T06:40:22;4.85;;;3.90;;
52035;SDS011;38046;49.448;32.074;2023-02-28T06:42:48;4.88;;;3.78;;
52035;SDS011;38046;49.448;32.074;2023-02-28T06:45:13;5.05;;;4.13;;
52035;SDS011;38046;49.448;32.074;2023-02-28T06:47:40;5.70;;;4.20;;
52035;SDS011;38046;49.448;32.074;2023-02-28T06:50:06;5.50;;;4.10;;
52035;SDS011;38046;49.448;32.074;2023-02-28T06:52:34;5.57;;;4.00;;
52035;SDS011;38046;49.448;32.074;2023-02-28T06:55:04;4.85;;;4.00;;
52035;SDS011;38046;49.448;32.074;2023-02-28T06:57:31;6.13;;;4.10;;
52035;SDS011;38046;49.448;32.074;2023-02-28T06:59:59;5.90;;;4.15;;
52035;SDS011;38046;49.448;32.074;2023-02-28T07:02:26;4.78;;;3.83;;
52035;SDS011;38046;49.448;32.074;2023-02-28T07:04:52;5.25;;;4.00;;
52035;SDS011;38046;49.448;32.074;2023-02-28T07:07:18;4.70;;;3.83;;
52035;SDS011;38046;49.448;32.074;2023-02-28T07:09:43;4.13;;;3.72;;
52035;SDS011;38046;49.448;32.074;2023-02-28T07:12:09;4.97;;;4.00;;
52035;SDS011;38046;49.448;32.074;2023-02-28T07:14:36;5.85;;;4.40;;
52035;SDS011;38046;49.448;32.074;2023-02-28T07:17:02;4.95;;;4.18;;
52035;SDS011;38046;49.448;32.074;2023-02-28T07:19:27;4.88;;;3.95;;
52035;SDS011;38046;49.448;32.074;2023-02-28T07:21:54;4.63;;;3.75;;
52035;SDS011;38046;49.448;32.074;2023-02-28T07:24:19;4.75;;;3.83;;
52035;SDS011;38046;49.448;32.074;2023-02-28T07:26:45;5.38;;;4.10;;
52035;SDS011;38046;49.448;32.074;2023-02-28T07:29:11;5.38;;;4.22;;
52035;SDS011;38046;49.448;32.074;2023-02-28T07:31:36;5.10;;;4.22;;
52035;SDS011;38046;49.448;32.074;2023-02-28T07:34:02;5.07;;;4.00;;
52035;SDS011;38046;49.448;32.074;2023-02-28T07:36:28;5.40;;;4.00;;
52035;SDS011;38046;49.448;32.074;2023-02-28T07:38:54;4.82;;;3.90;;
52035;SDS011;38046;49.448;32.074;2023-02-28T07:41:21;5.50;;;4.13;;
52035;SDS011;38046;49.448;32.074;2023-02-28T07:43:48;4.85;;;4.05;;
52035;SDS011;38046;49.448;32.074;2023-02-28T07:46:14;7.03;;;4.47;;
52035;SDS011;38046;49.448;32.074;2023-02-28T07:48:41;5.30;;;4.30;;
52035;SDS011;38046;49.448;32.074;2023-02-28T07:51:08;5.72;;;4.28;;
52035;SDS011;38046;49.448;32.074;2023-02-28T07:53:34;6.13;;;4.57;;
52035;SDS011;38046;49.448;32.074;2023-02-28T07:56:00;5.55;;;4.70;;
52035;SDS011;38046;49.448;32.074;2023-02-28T07:58:27;5.43;;;4.55;;
52035;SDS011;38046;49.448;32.074;2023-02-28T08:00:54;5.72;;;4.50;;
52035;SDS011;38046;49.448;32.074;2023-02-28T08:03:21;5.85;;;4.90;;
52035;SDS011;38046;49.448;32.074;2023-02-28T08:05:50;5.90;;;4.75;;
52035;SDS011;38046;49.448;32.074;2023-02-28T08:08:18;5.90;;;4.85;;
52035;SDS011;38046;49.448;32.074;2023-02-28T08:10:43;5.75;;;5.15;;
52035;SDS011;38046;49.448;32.074;2023-02-28T08:13:09;7.15;;;5.65;;
52035;SDS011;38046;49.448;32.074;2023-02-28T08:15:35;6.43;;;5.45;;
52035;SDS011;38046;49.448;32.074;2023-02-28T08:18:01;7.30;;;5.88;;
52035;SDS011;38046;49.448;32.074;2023-02-28T08:20:27;7.05;;;5.90;;
52035;SDS011;38046;49.448;32.074;2023-02-28T08:22:52;7.72;;;6.50;;
52035;SDS011;38046;49.448;32.074;2023-02-28T08:25:18;9.02;;;6.63;;
52035;SDS011;38046;49.448;32.074;2023-02-28T08:27:44;7.28;;;5.95;;
52035;SDS011;38046;49.448;32.074;2023-02-28T08:30:11;8.52;;;7.15;;
52035;SDS011;38046;49.448;32.074;2023-02-28T08:32:38;8.57;;;6.70;;
52035;SDS011;38046;49.448;32.074;2023-02-28T08:35:04;7.50;;;6.38;;
52035;SDS011;38046;49.448;32.074;2023-02-28T08:37:30;7.72;;;6.60;;
52035;SDS011;38046;49.448;32.074;2023-02-28T08:39:56;8.18;;;6.95;;
52035;SDS011;38046;49.448;32.074;2023-02-28T08:42:22;7.53;;;6.72;;
52035;SDS011;38046;49.448;32.074;2023-02-28T08:44:48;9.05;;;7.10;;
52035;SDS011;38046;49.448;32.074;2023-02-28T08:47:14;8.52;;;6.68;;
52035;SDS011;38046;49.448;32.074;2023-02-28T08:49:40;8.55;;;6.90;;
52035;SDS011;38046;49.448;32.074;2023-02-28T08:52:05;8.93;;;7.30;;
52035;SDS011;38046;49.448;32.074;2023-02-28T08:54:31;8.65;;;7.50;;
52035;SDS011;38046;49.448;32.074;2023-02-28T08:56:58;8.80;;;7.88;;
52035;SDS011;38046;49.448;32.074;2023-02-28T08:59:23;8.98;;;7.22;;
52035;SDS011;38046;49.448;32.074;2023-02-28T09:01:49;7.63;;;6.78;;
52035;SDS011;38046;49.448;32.074;2023-02-28T09:04:15;10.60;;;8.75;;
52035;SDS011;38046;49.448;32.074;2023-02-28T09:06:40;11.20;;;9.05;;
52035;SDS011;38046;49.448;32.074;2023-02-28T09:09:06;10.90;;;8.70;;
52035;SDS011;38046;49.448;32.074;2023-02-28T09:11:32;10.73;;;9.38;;
52035;SDS011;38046;49.448;32.074;2023-02-28T09:13:59;11.25;;;9.48;;
52035;SDS011;38046;49.448;32.074;2023-02-28T09:16:28;9.65;;;8.35;;
52035;SDS011;38046;49.448;32.074;2023-02-28T09:18:54;9.85;;;8.55;;
52035;SDS011;38046;49.448;32.074;2023-02-28T09:21:20;10.45;;;8.50;;
52035;SDS011;38046;49.448;32.074;2023-02-28T09:23:46;10.95;;;8.65;;
52035;SDS011;38046;49.448;32.074;2023-02-28T09:26:14;10.15;;;8.65;;
52035;SDS011;38046;49.448;32.074;2023-02-28T09:28:51;10.90;;;8.70;;
52035;SDS011;38046;49.448;32.074;2023-02-28T09:31:20;10.95;;;9.40;;
52035;SDS011;38046;49.448;32.074;2023-02-28T09:33:50;10.15;;;8.02;;
52035;SDS011;38046;49.448;32.074;2023-02-28T09:36:18;7.90;;;6.65;;
52035;SDS011;38046;49.448;32.074;2023-02-28T09:38:44;9.23;;;8.10;;
52035;SDS011;38046;49.448;32.074;2023-02-28T09:41:15;9.05;;;7.53;;
52035;SDS011;38046;49.448;32.074;2023-02-28T09:43:51;7.55;;;6.78;;
52035;SDS011;38046;49.448;32.074;2023-02-28T09:49:14;9.20;;;7.43;;
52035;SDS011;38046;49.448;32.074;2023-02-28T09:51:48;7.22;;;6.38;;
52035;SDS011;38046;49.448;32.074;2023-02-28T09:54:27;7.28;;;6.00;;
52035;SDS011;38046;49.448;32.074;2023-02-28T09:57:37;7.35;;;6.38;;
52035;SDS011;38046;49.448;32.074;2023-02-28T10:05:14;6.90;;;6.00;;
52035;SDS011;38046;49.448;32.074;2023-02-28T10:08:04;10.48;;;7.63;;
52035;SDS011;38046;49.448;32.074;2023-02-28T10:10:45;8.43;;;6.50;;
52035;SDS011;38046;49.448;32.074;2023-02-28T10:16:43;8.25;;;6.40;;
52035;SDS011;38046;49.448;32.074;2023-02-28T10:21:43;6.68;;;5.55;;
52035;SDS011;38046;49.448;32.074;2023-02-28T10:26:59;7.03;;;6.22;;
52035;SDS011;38046;49.448;32.074;2023-02-28T10:29:31;7.63;;;6.43;;
52035;SDS011;38046;49.448;32.074;2023-02-28T10:31:58;8.40;;;6.43;;
52035;SDS011;38046;49.448;32.074;2023-02-28T10:34:27;9.07;;;6.72;;
52035;SDS011;38046;49.448;32.074;2023-02-28T10:36:53;7.68;;;5.68;;
52035;SDS011;38046;49.448;32.074;2023-02-28T10:39:40;8.38;;;6.30;;
52035;SDS011;38046;49.448;32.074;2023-02-28T10:42:21;7.80;;;6.20;;
52035;SDS011;38046;49.448;32.074;2023-02-28T10:45:09;7.95;;;6.28;;
52035;SDS011;38046;49.448;32.074;2023-02-28T10:47:38;8.63;;;5.95;;
52035;SDS011;38046;49.448;32.074;2023-02-28T10:55:37;9.13;;;7.43;;
52035;SDS011;38046;49.448;32.074;2023-02-28T10:58:10;9.13;;;6.90;;
52035;SDS011;38046;49.448;32.074;2023-02-28T11:00:48;9.77;;;7.82;;
52035;SDS011;38046;49.448;32.074;2023-02-28T11:03:34;9.68;;;7.20;;
52035;SDS011;38046;49.448;32.074;2023-02-28T11:06:07;8.95;;;6.82;;
52035;SDS011;38046;49.448;32.074;2023-02-28T11:08:44;9.90;;;7.57;;
52035;SDS011;38046;49.448;32.074;2023-02-28T11:11:20;8.25;;;7.15;;
52035;SDS011;38046;49.448;32.074;2023-02-28T11:13:48;7.85;;;6.95;;
52035;SDS011;38046;49.448;32.074;2023-02-28T11:16:17;8.70;;;6.80;;
52035;SDS011;38046;49.448;32.074;2023-02-28T11:18:53;9.43;;;7.68;;
52035;SDS011;38046;49.448;32.074;2023-02-28T11:21:27;8.07;;;6.60;;
52035;SDS011;38046;49.448;32.074;2023-02-28T11:26:52;7.63;;;6.10;;
52035;SDS011;38046;49.448;32.074;2023-02-28T11:29:20;7.47;;;6.05;;
52035;SDS011;38046;49.448;32.074;2023-02-28T11:34:28;9.45;;;7.47;;
52035;SDS011;38046;49.448;32.074;2023-02-28T11:36:56;9.30;;;8.07;;
52035;SDS011;38046;49.448;32.074;2023-02-28T11:39:23;10.00;;;8.35;;
52035;SDS011;38046;49.448;32.074;2023-02-28T11:56:01;12.52;;;9.82;;
52035;SDS011;38046;49.448;32.074;2023-02-28T11:58:55;12.05;;;9.30;;
52035;SDS011;38046;49.448;32.074;2023-02-28T12:04:17;11.70;;;9.45;;
52035;SDS011;38046;49.448;32.074;2023-02-28T12:20:53;8.98;;;7.90;;
52035;SDS011;38046;49.448;32.074;2023-02-28T12:28:52;9.98;;;8.45;;
52035;SDS011;38046;49.448;32.074;2023-02-28T12:31:24;11.55;;;9.23;;
52035;SDS011;38046;49.448;32.074;2023-02-28T12:33:57;9.85;;;8.25;;
52035;SDS011;38046;49.448;32.074;2023-02-28T12:39:36;10.23;;;8.45;;
52035;SDS011;38046;49.448;32.074;2023-02-28T12:41:49;8.30;;;7.38;;
52035;SDS011;38046;49.448;32.074;2023-02-28T12:47:03;9.27;;;7.50;;
52035;SDS011;38046;49.448;32.074;2023-02-28T12:51:59;8.13;;;7.07;;
52035;SDS011;38046;49.448;32.074;2023-02-28T12:54:31;9.27;;;8.25;;
52035;SDS011;38046;49.448;32.074;2023-02-28T12:57:31;9.23;;;7.82;;
52035;SDS011;38046;49.448;32.074;2023-02-28T13:00:12;8.75;;;7.43;;
52035;SDS011;38046;49.448;32.074;2023-02-28T13:13:29;8.80;;;7.30;;
52035;SDS011;38046;49.448;32.074;2023-02-28T13:15:56;10.07;;;6.78;;
52035;SDS011;38046;49.448;32.074;2023-02-28T13:18:43;9.02;;;7.53;;
52035;SDS011;38046;49.448;32.074;2023-02-28T13:21:29;11.00;;;8.63;;
52035;SDS011;38046;49.448;32.074;2023-02-28T13:23:57;9.60;;;7.95;;
52035;SDS011;38046;49.448;32.074;2023-02-28T13:34:27;8.18;;;7.05;;
52035;SDS011;38046;49.448;32.074;2023-02-28T13:37:27;10.38;;;8.50;;
52035;SDS011;38046;49.448;32.074;2023-02-28T13:39:49;8.30;;;7.25;;
52035;SDS011;38046;49.448;32.074;2023-02-28T13:42:33;7.50;;;6.55;;
52035;SDS011;38046;49.448;32.074;2023-02-28T13:47:31;8.13;;;7.15;;
52035;SDS011;38046;49.448;32.074;2023-02-28T13:55:43;8.02;;;6.35;;
52035;SDS011;38046;49.448;32.074;2023-02-28T14:01:14;7.95;;;6.03;;
52035;SDS011;38046;49.448;32.074;2023-02-28T14:06:30;7.97;;;6.40;;
52035;SDS011;38046;49.448;32.074;2023-02-28T14:09:02;7.97;;;6.70;;
52035;SDS011;38046;49.448;32.074;2023-02-28T14:11:41;8.35;;;6.70;;
52035;SDS011;38046;49.448;32.074;2023-02-28T14:14:08;8.20;;;6.72;;
52035;SDS011;38046;49.448;32.074;2023-02-28T14:16:54;9.10;;;6.80;;
52035;SDS011;38046;49.448;32.074;2023-02-28T14:19:26;8.57;;;6.78;;
52035;SDS011;38046;49.448;32.074;2023-02-28T14:32:49;7.50;;;5.95;;
52035;SDS011;38046;49.448;32.074;2023-02-28T14:38:18;8.32;;;6.40;;
52035;SDS011;38046;49.448;32.074;2023-02-28T14:40:49;7.18;;;5.47;;
52035;SDS011;38046;49.448;32.074;2023-02-28T14:43:22;7.47;;;6.30;;
52035;SDS011;38046;49.448;32.074;2023-02-28T14:45:55;8.00;;;6.10;;
52035;SDS011;38046;49.448;32.074;2023-02-28T14:48:24;8.23;;;6.53;;
52035;SDS011;38046;49.448;32.074;2023-02-28T14:50:52;8.50;;;7.30;;
52035;SDS011;38046;49.448;32.074;2023-02-28T14:53:21;10.07;;;7.60;;
52035;SDS011;38046;49.448;32.074;2023-02-28T14:55:49;9.55;;;7.20;;
52035;SDS011;38046;49.448;32.074;2023-02-28T14:58:25;9.20;;;7.40;;
52035;SDS011;38046;49.448;32.074;2023-02-28T15:00:51;8.20;;;5.78;;
52035;SDS011;38046;49.448;32.074;2023-02-28T15:03:20;10.10;;;7.32;;
52035;SDS011;38046;49.448;32.074;2023-02-28T15:05:57;10.50;;;7.72;;
52035;SDS011;38046;49.448;32.074;2023-02-28T15:08:27;9.75;;;7.25;;
52035;SDS011;38046;49.448;32.074;2023-02-28T15:13:58;9.88;;;7.80;;
52035;SDS011;38046;49.448;32.074;2023-02-28T15:16:35;9.60;;;7.32;;
52035;SDS011;38046;49.448;32.074;2023-02-28T15:19:17;11.25;;;8.70;;
52035;SDS011;38046;49.448;32.074;2023-02-28T15:21:52;10.20;;;7.60;;
52035;SDS011;38046;49.448;32.074;2023-02-28T15:24:37;10.40;;;7.97;;
52035;SDS011;38046;49.448;32.074;2023-02-28T15:27:06;10.63;;;8.60;;
52035;SDS011;38046;49.448;32.074;2023-02-28T15:29:44;12.90;;;9.30;;
52035;SDS011;38046;49.448;32.074;2023-02-28T15:33:00;9.63;;;7.88;;
52035;SDS011;38046;49.448;32.074;2023-02-28T15:40:42;9.95;;;7.80;;
52035;SDS011;38046;49.448;32.074;2023-02-28T15:43:17;13.02;;;9.25;;
52035;SDS011;38046;49.448;32.074;2023-02-28T15:45:48;12.57;;;9.15;;
52035;SDS011;38046;49.448;32.074;2023-02-28T15:48:18;12.88;;;9.82;;
52035;SDS011;38046;49.448;32.074;2023-02-28T15:50:55;15.97;;;11.37;;
52035;SDS011;38046;49.448;32.074;2023-02-28T15:53:24;17.05;;;12.00;;
52035;SDS011;38046;49.448;32.074;2023-02-28T15:58:23;18.35;;;12.95;;
52035;SDS011;38046;49.448;32.074;2023-02-28T16:01:57;17.85;;;13.45;;
52035;SDS011;38046;49.448;32.074;2023-02-28T16:03:57;18.67;;;14.50;;
52035;SDS011;38046;49.448;32.074;2023-02-28T16:09:11;17.73;;;13.18;;
52035;SDS011;38046;49.448;32.074;2023-02-28T16:11:40;16.85;;;12.10;;
52035;SDS011;38046;49.448;32.074;2023-02-28T16:14:12;16.52;;;10.90;;
52035;SDS011;38046;49.448;32.074;2023-02-28T16:16:48;16.80;;;12.18;;
52035;SDS011;38046;49.448;32.074;2023-02-28T16:21:41;12.05;;;8.98;;
52035;SDS011;38046;49.448;32.074;2023-02-28T16:24:06;11.40;;;8.65;;
52035;SDS011;38046;49.448;32.074;2023-02-28T16:26:32;10.23;;;7.75;;
52035;SDS011;38046;49.448;32.074;2023-02-28T16:28:59;10.48;;;8.25;;
52035;SDS011;38046;49.448;32.074;2023-02-28T16:31:26;10.55;;;7.75;;
52035;SDS011;38046;49.448;32.074;2023-02-28T16:33:52;9.88;;;8.02;;
52035;SDS011;38046;49.448;32.074;2023-02-28T16:36:20;9.55;;;7.38;;
52035;SDS011;38046;49.448;32.074;2023-02-28T16:38:49;10.10;;;6.90;;
52035;SDS011;38046;49.448;32.074;2023-02-28T16:41:19;11.60;;;7.78;;
52035;SDS011;38046;49.448;32.074;2023-02-28T16:43:48;12.27;;;7.80;;
52035;SDS011;38046;49.448;32.074;2023-02-28T16:46:16;10.90;;;8.52;;
52035;SDS011;38046;49.448;32.074;2023-02-28T16:48:46;10.70;;;7.78;;
52035;SDS011;38046;49.448;32.074;2023-02-28T16:51:16;10.63;;;7.95;;
52035;SDS011;38046;49.448;32.074;2023-02-28T16:53:43;11.70;;;8.77;;
52035;SDS011;38046;49.448;32.074;2023-02-28T16:56:19;10.43;;;7.97;;
52035;SDS011;38046;49.448;32.074;2023-02-28T16:58:47;10.57;;;7.85;;
52035;SDS011;38046;49.448;32.074;2023-02-28T17:01:13;10.48;;;8.32;;
52035;SDS011;38046;49.448;32.074;2023-02-28T17:03:40;11.40;;;8.63;;
52035;SDS011;38046;49.448;32.074;2023-02-28T17:06:06;12.80;;;8.88;;
52035;SDS011;38046;49.448;32.074;2023-02-28T17:08:44;12.00;;;9.07;;
52035;SDS011;38046;49.448;32.074;2023-02-28T17:11:09;11.85;;;9.18;;
52035;SDS011;38046;49.448;32.074;2023-02-28T17:13:35;12.60;;;9.55;;
52035;SDS011;38046;49.448;32.074;2023-02-28T17:16:01;12.70;;;9.38;;
52035;SDS011;38046;49.448;32.074;2023-02-28T17:18:27;11.40;;;8.57;;
52035;SDS011;38046;49.448;32.074;2023-02-28T17:20:58;11.63;;;9.10;;
52035;SDS011;38046;49.448;32.074;2023-02-28T17:23:27;11.07;;;8.52;;
52035;SDS011;38046;49.448;32.074;2023-02-28T17:25:52;10.65;;;8.90;;
52035;SDS011;38046;49.448;32.074;2023-02-28T17:28:18;11.68;;;8.45;;
52035;SDS011;38046;49.448;32.074;2023-02-28T17:30:46;12.07;;;8.93;;
52035;SDS011;38046;49.448;32.074;2023-02-28T17:33:12;11.80;;;9.18;;
52035;SDS011;38046;49.448;32.074;2023-02-28T17:35:38;11.23;;;8.90;;
52035;SDS011;38046;49.448;32.074;2023-02-28T17:38:03;9.93;;;8.52;;
52035;SDS011;38046;49.448;32.074;2023-02-28T17:40:29;10.10;;;8.02;;
52035;SDS011;38046;49.448;32.074;2023-02-28T17:42:55;11.05;;;8.50;;